createdAt,value
2018-06-23T08:31:10.070Z,57.20
2018-06-23T08:33:39.443Z,51.00
2018-06-23T08:36:10.036Z,50.00
2018-06-23T08:38:39.440Z,51.50
2018-06-23T08:41:08.454Z,51.00
2018-06-23T08:43:37.916Z,51.50
2018-06-23T08:46:07.112Z,51.80
2018-06-23T08:48:37.123Z,51.80
2018-06-23T08:51:05.648Z,51.90
2018-06-23T08:53:34.925Z,51.20
2018-06-23T08:56:04.344Z,52.60
2018-06-23T08:58:35.234Z,51.70
2018-06-23T09:01:04.690Z,51.90
2018-06-23T09:03:34.569Z,50.70
2018-06-23T09:06:03.155Z,51.10
2018-06-23T09:08:31.659Z,51.30
2018-06-23T09:11:00.870Z,51.70
2018-06-23T09:13:30.433Z,51.70
2018-06-23T09:15:58.999Z,50.80
2018-06-23T09:18:27.501Z,50.70
2018-06-23T09:20:56.016Z,50.50
2018-06-23T09:23:24.501Z,50.40
2018-06-23T09:25:53.193Z,49.50
2018-06-23T09:28:21.651Z,48.90
2018-06-23T09:30:50.167Z,49.30
2018-06-23T09:33:18.709Z,48.70
2018-06-23T09:35:47.418Z,47.40
2018-06-23T09:40:44.190Z,47.90
2018-06-23T09:43:12.693Z,47.60
2018-06-23T09:45:41.275Z,47.60
2018-06-23T09:48:09.844Z,48.20
2018-06-23T09:50:38.438Z,48.20
2018-06-23T09:53:06.977Z,49.40
2018-06-23T09:55:35.583Z,49.10
2018-06-23T09:58:04.084Z,47.40
2018-06-23T10:00:32.603Z,48.10
2018-06-23T10:03:01.849Z,46.40
2018-06-23T10:05:30.536Z,45.30
2018-06-23T10:08:00.010Z,45.60
2018-06-23T10:10:29.259Z,45.90
2018-06-23T10:12:57.864Z,45.40
2018-06-23T10:15:26.515Z,45.20
2018-06-23T10:17:55.039Z,45.00
2018-06-23T10:20:23.711Z,44.50
2018-06-23T10:22:52.230Z,43.90
2018-06-23T10:25:20.894Z,43.30
2018-06-23T10:27:49.405Z,43.90
2018-06-23T10:30:17.914Z,43.30
2018-06-23T10:32:46.470Z,43.60
2018-06-23T10:35:15.117Z,43.40
2018-06-23T10:37:43.613Z,43.00
2018-06-23T10:40:12.137Z,43.30
2018-06-23T10:42:40.702Z,43.10
2018-06-23T10:45:09.309Z,42.50
2018-06-23T10:47:37.844Z,42.50
2018-06-23T10:50:06.361Z,41.90
2018-06-23T10:52:34.853Z,42.70
2018-06-23T10:55:03.548Z,43.10
2018-06-23T10:57:32.109Z,44.00
2018-06-23T11:00:00.610Z,45.40
2018-06-23T11:02:29.320Z,45.10
2018-06-23T11:04:57.982Z,44.30
2018-06-23T11:07:26.683Z,43.10
2018-06-23T11:09:55.218Z,43.60
2018-06-23T11:12:23.750Z,44.40
2018-06-23T11:14:52.358Z,45.20
2018-06-23T11:19:49.092Z,42.40
2018-06-23T11:22:17.627Z,42.20
2018-06-23T11:24:46.243Z,41.90
2018-06-23T11:27:15.768Z,41.40
2018-06-23T11:29:44.352Z,42.50
2018-06-23T11:32:12.920Z,43.50
2018-06-23T11:34:42.372Z,43.90
2018-06-23T11:37:10.934Z,43.40
2018-06-23T11:39:39.476Z,41.60
2018-06-23T11:42:07.997Z,40.70
2018-06-23T11:44:36.616Z,41.20
2018-06-23T11:47:05.773Z,42.10
2018-06-23T11:49:34.410Z,42.60
2018-06-23T11:52:02.927Z,42.80
2018-06-23T11:54:31.473Z,42.70
2018-06-23T11:57:00.038Z,42.70
2018-06-23T11:59:28.554Z,42.10
2018-06-23T12:01:57.343Z,41.20
2018-06-23T12:04:26.988Z,40.80
2018-06-23T12:06:55.756Z,41.40
2018-06-23T12:09:25.571Z,41.50
2018-06-23T12:11:54.476Z,41.70
2018-06-23T12:14:23.080Z,40.70
2018-06-23T12:16:51.580Z,41.40
2018-06-23T12:19:21.094Z,41.20
2018-06-23T12:21:49.687Z,38.10
2018-06-23T12:24:18.260Z,38.30
2018-06-23T12:26:46.809Z,39.20
2018-06-23T12:29:15.299Z,39.60
2018-06-23T12:31:43.871Z,41.20
2018-06-23T12:34:12.395Z,42.10
2018-06-23T12:36:40.894Z,41.90
2018-06-23T12:39:11.136Z,39.40
2018-06-23T12:41:41.437Z,39.00
2018-06-23T12:44:10.191Z,39.10
2018-06-23T12:46:39.268Z,38.30
2018-06-23T12:49:07.855Z,38.40
2018-06-23T12:51:36.412Z,38.60
2018-06-23T12:54:04.949Z,39.20
2018-06-23T12:56:33.490Z,39.80
2018-06-23T12:59:02.090Z,39.40
2018-06-23T13:01:31.092Z,37.20
2018-06-23T13:04:00.146Z,37.40
2018-06-23T13:06:28.798Z,38.50
2018-06-23T13:08:57.318Z,38.00
2018-06-23T13:11:25.818Z,37.80
2018-06-23T13:13:54.378Z,38.60
2018-06-23T13:16:23.022Z,38.40
2018-06-23T13:18:51.543Z,39.00
2018-06-23T13:21:20.080Z,39.70
2018-06-23T13:23:48.724Z,39.80
2018-06-23T13:26:18.354Z,39.10
2018-06-23T13:28:46.936Z,39.00
2018-06-23T13:31:15.517Z,37.90
2018-06-23T13:33:44.045Z,37.40
2018-06-23T13:36:12.713Z,38.30
2018-06-23T13:38:41.235Z,39.50
2018-06-23T13:41:09.836Z,40.90
2018-06-23T13:43:38.366Z,40.30
2018-06-23T13:46:07.034Z,38.10
2018-06-23T13:48:36.200Z,38.30
2018-06-23T13:51:04.718Z,38.60
2018-06-23T13:53:33.337Z,37.60
2018-06-23T13:56:01.997Z,35.90
2018-06-23T13:58:30.491Z,28.50
2018-06-23T14:00:59.052Z,24.30
2018-06-23T14:03:27.603Z,23.60
2018-06-23T14:05:57.085Z,23.80
2018-06-23T14:08:25.675Z,24.80
2018-06-23T14:10:54.200Z,22.00
2018-06-23T14:13:22.742Z,17.80
2018-06-23T14:15:51.310Z,15.80
2018-06-23T14:18:19.839Z,13.50
2018-06-23T14:20:48.337Z,13.30
2018-06-23T14:23:16.876Z,15.00
2018-06-23T14:25:46.265Z,16.40
2018-06-23T14:28:15.877Z,18.10
2018-06-23T14:30:44.414Z,19.50
2018-06-23T14:33:12.916Z,20.80
2018-06-23T14:35:41.581Z,21.60
2018-06-23T14:38:10.125Z,22.30
2018-06-23T14:40:38.775Z,18.20
2018-06-23T14:43:07.474Z,17.20
2018-06-23T14:45:36.163Z,16.80
2018-06-23T14:48:05.560Z,16.70
2018-06-23T14:50:34.431Z,17.00
2018-06-23T14:53:03.004Z,17.20
2018-06-23T14:55:32.163Z,16.10
2018-06-23T14:58:00.830Z,17.10
2018-06-23T15:00:29.370Z,16.60
2018-06-23T15:02:58.013Z,15.70
2018-06-23T15:05:26.680Z,16.80
2018-06-23T15:08:01.816Z,19.40
2018-06-23T15:10:41.683Z,21.30
2018-06-23T15:13:16.834Z,22.10
2018-06-23T15:15:45.766Z,22.80
2018-06-23T15:18:14.345Z,22.10
2018-06-23T15:20:44.662Z,20.20
2018-06-23T15:23:14.279Z,23.30
2018-06-23T15:25:42.909Z,24.30
2018-06-23T15:28:11.573Z,24.30
2018-06-23T15:30:40.596Z,25.20
2018-06-23T15:33:10.039Z,27.50
2018-06-23T15:35:39.331Z,27.00
2018-06-23T15:38:08.285Z,27.00
2018-06-23T15:40:36.877Z,26.90
2018-06-23T15:43:05.450Z,24.10
2018-06-23T15:45:34.083Z,23.50
2018-06-23T15:48:02.632Z,22.50
2018-06-23T15:50:31.136Z,23.00
2018-06-23T15:52:59.656Z,22.70
2018-06-23T15:55:28.222Z,21.60
2018-06-23T15:57:56.741Z,20.60
2018-06-23T16:00:25.233Z,18.90
2018-06-23T16:02:53.744Z,19.10
2018-06-23T16:05:22.348Z,18.80
2018-06-23T16:07:50.871Z,19.00
2018-06-23T16:10:22.973Z,18.90
2018-06-23T16:12:51.858Z,19.60
2018-06-23T16:15:20.453Z,19.50
2018-06-23T16:17:48.968Z,19.90
2018-06-23T16:20:17.495Z,18.30
2018-06-23T16:22:46.795Z,18.50
2018-06-23T16:25:15.718Z,19.20
2018-06-23T16:27:44.220Z,20.40
2018-06-23T16:30:12.711Z,22.40
2018-06-23T16:32:41.197Z,25.20
2018-06-23T16:35:10.113Z,27.30
2018-06-23T16:37:38.361Z,27.80
2018-06-23T16:40:06.894Z,24.00
2018-06-23T16:42:35.439Z,20.90
2018-06-23T16:45:04.092Z,19.70
2018-06-23T16:47:32.582Z,19.10
2018-06-23T16:50:01.368Z,18.50
2018-06-23T16:52:29.958Z,18.30
2018-06-23T16:54:58.563Z,18.40
2018-06-23T16:57:27.159Z,18.20
2018-06-23T16:59:55.690Z,17.50
2018-06-23T17:02:24.173Z,18.70
2018-06-23T17:04:52.710Z,19.70
2018-06-23T17:07:21.259Z,18.60
2018-06-23T17:09:49.854Z,17.90
2018-06-23T17:12:18.354Z,17.50
2018-06-23T17:14:46.963Z,17.30
2018-06-23T17:17:15.529Z,17.00
2018-06-23T17:19:44.043Z,17.20
2018-06-23T17:22:12.539Z,17.40
2018-06-23T17:24:41.162Z,17.20
2018-06-23T17:27:09.720Z,17.30
2018-06-23T17:29:38.228Z,16.80
2018-06-23T17:32:06.738Z,18.10
2018-06-23T17:34:35.312Z,19.90
2018-06-23T17:37:03.789Z,22.10
2018-06-23T17:39:32.288Z,24.60
2018-06-23T17:42:00.798Z,26.80
2018-06-23T17:44:29.287Z,29.40
2018-06-23T17:46:57.792Z,30.80
2018-06-23T17:49:26.304Z,32.10
2018-06-23T17:51:54.779Z,34.00
2018-06-23T17:54:23.346Z,35.10
2018-06-23T17:56:51.846Z,35.40
2018-06-23T17:59:20.325Z,36.30
2018-06-23T18:01:48.822Z,37.80
2018-06-23T18:04:17.309Z,38.70
2018-06-23T18:06:45.793Z,39.10
2018-06-23T18:09:14.284Z,40.20
2018-06-23T18:14:10.970Z,41.90
2018-06-23T18:16:39.460Z,43.20
2018-06-23T18:19:08.098Z,43.20
2018-06-23T18:24:04.822Z,44.90
2018-06-23T18:26:33.597Z,45.30
2018-06-23T18:29:02.193Z,46.20
2018-06-23T18:31:30.674Z,46.60
2018-06-23T18:34:00.167Z,46.70
2018-06-23T18:36:28.742Z,48.20
2018-06-23T18:38:57.220Z,48.90
2018-06-23T18:41:25.746Z,48.40
2018-06-23T18:43:54.278Z,49.80
2018-06-23T18:46:22.827Z,49.70
2018-06-23T18:48:51.304Z,50.10
2018-06-23T18:51:19.989Z,49.80
2018-06-23T18:53:48.517Z,50.20
2018-06-23T18:56:17.134Z,51.40
2018-06-23T18:58:45.640Z,50.50
2018-06-23T19:01:14.149Z,50.70
2018-06-23T19:03:42.648Z,50.90
2018-06-23T19:06:11.193Z,50.90
2018-06-23T19:08:39.707Z,51.20
2018-06-23T19:11:08.453Z,51.50
2018-06-23T19:13:36.973Z,51.50
2018-06-23T19:16:05.666Z,52.00
2018-06-23T19:18:34.161Z,52.20
2018-06-23T19:21:02.623Z,52.90
2018-06-23T19:23:31.115Z,52.70
2018-06-23T19:25:59.666Z,52.90
2018-06-23T19:28:28.114Z,53.60
2018-06-23T19:30:56.637Z,53.90
2018-06-23T19:33:25.160Z,53.60
2018-06-23T19:35:53.764Z,53.90
2018-06-23T19:38:22.232Z,53.70
2018-06-23T19:40:50.705Z,54.60
2018-06-23T19:43:19.338Z,54.70
2018-06-23T19:45:47.923Z,55.40
2018-06-23T19:48:16.402Z,55.00
2018-06-23T19:50:44.887Z,55.40
2018-06-23T19:53:13.360Z,55.70
2018-06-23T19:55:41.922Z,56.00
2018-06-23T19:58:10.461Z,56.10
2018-06-23T20:00:38.940Z,56.90
2018-06-23T20:03:07.438Z,56.60
2018-06-23T20:05:36.077Z,56.90
2018-06-23T20:08:04.574Z,57.30
2018-06-23T20:10:33.033Z,57.60
2018-06-23T20:13:01.543Z,57.40
2018-06-23T20:15:30.096Z,57.70
2018-06-23T20:17:58.591Z,57.90
2018-06-23T20:20:27.073Z,58.50
2018-06-23T20:22:55.551Z,58.40
2018-06-23T20:25:24.165Z,58.60
2018-06-23T20:27:52.626Z,59.00
2018-06-23T20:30:21.158Z,59.40
2018-06-23T20:32:49.642Z,59.50
2018-06-23T20:35:18.235Z,59.80
2018-06-23T20:37:46.718Z,60.20
2018-06-23T20:40:15.231Z,60.30
2018-06-23T20:42:43.749Z,60.80
2018-06-23T20:45:12.399Z,60.80
2018-06-23T20:47:40.912Z,61.20
2018-06-23T20:50:09.394Z,61.60
2018-06-23T20:52:37.908Z,61.70
2018-06-23T20:55:06.484Z,62.20
2018-06-23T20:57:34.974Z,62.60
2018-06-23T21:00:03.489Z,62.70
2018-06-23T21:02:32.007Z,62.90
2018-06-23T21:05:00.611Z,63.20
2018-06-23T21:07:29.200Z,63.20
2018-06-23T21:09:57.641Z,63.50
2018-06-23T21:12:26.148Z,63.70
2018-06-23T21:14:54.741Z,63.70
2018-06-23T21:17:23.213Z,63.60
2018-06-23T21:19:51.764Z,63.60
2018-06-23T21:22:20.542Z,63.60
2018-06-23T21:24:49.083Z,63.90
2018-06-23T21:27:17.681Z,63.90
2018-06-23T21:29:46.242Z,64.00
2018-06-23T21:32:14.722Z,64.10
2018-06-23T21:34:43.285Z,64.10
2018-06-23T21:37:11.788Z,64.40
2018-06-23T21:39:41.369Z,64.30
2018-06-23T21:42:09.867Z,64.70
2018-06-23T21:44:38.527Z,64.30
2018-06-23T21:47:07.807Z,64.50
2018-06-23T21:49:36.779Z,64.50
2018-06-23T21:52:06.015Z,64.70
2018-06-23T21:57:05.595Z,65.50
2018-06-23T21:59:34.879Z,65.30
2018-06-23T22:02:04.959Z,65.60
2018-06-23T22:04:35.202Z,66.00
2018-06-23T22:07:05.953Z,66.50
2018-06-23T22:09:35.718Z,66.30
2018-06-23T22:12:05.919Z,66.40
2018-06-23T22:14:34.622Z,66.30
2018-06-23T22:17:04.525Z,67.10
2018-06-23T22:19:36.879Z,67.50
2018-06-23T22:22:06.573Z,67.20
2018-06-23T22:24:37.283Z,67.70
2018-06-23T22:27:08.090Z,68.10
2018-06-23T22:29:38.750Z,68.20
2018-06-23T22:32:10.006Z,68.60
2018-06-23T22:34:39.255Z,68.60
2018-06-23T22:37:09.586Z,69.20
2018-06-23T22:39:39.165Z,69.00
2018-06-23T22:42:08.961Z,69.20
2018-06-23T22:44:38.306Z,69.50
2018-06-23T22:47:06.950Z,69.30
2018-06-23T22:49:35.591Z,69.20
2018-06-23T22:52:05.039Z,69.20
2018-06-23T22:54:34.667Z,69.20
2018-06-23T22:57:04.944Z,68.90
2018-06-23T22:59:33.681Z,68.60
2018-06-23T23:02:03.648Z,68.40
2018-06-23T23:04:33.141Z,68.30
2018-06-23T23:07:02.860Z,68.50
2018-06-23T23:09:31.426Z,69.00
2018-06-23T23:12:01.479Z,69.00
2018-06-23T23:14:31.110Z,69.40
